Plainview, Minnesota
Current Conditions -  °F | °C
As of 7:54 AM on Thursday 23 Oct 2014 (Local Time) from K9MN Reporting Station
Overcast Overcast  
Wind Chill: 45°   Ceiling: 700
Heat Index: 48°   Visibility: 5mi
Dew Point: 47°   Wind: 8mph
Humidity: 95%   Direction: 160°SSE
Pressure: 30.02"   Gusts: NA
Location:  44.16°N, 92.17°W
Report Text: K9MN 231254Z AUTO 16007KT 5SM BKN007 BKN012 OVC070 09/08 A3002 RMK AO1 P0010 T00900082
Loading
Personal Weather Stations






























Interactive Weather Map
Tropical Storm Tracking
New forecast layout! Learn more

10-Day Weather Forecast

Advertisements
Track Severe Weather on mobile